createdAt,value
2023-04-28T00:00:08.896Z,4.80
2023-04-28T00:02:37.306Z,3.73
2023-04-28T00:05:07.752Z,5.13
2023-04-28T00:07:37.473Z,6.57
2023-04-28T00:10:06.163Z,5.40
2023-04-28T00:12:34.616Z,6.00
2023-04-28T00:15:03.709Z,4.93
2023-04-28T00:17:32.212Z,6.37
2023-04-28T00:20:00.720Z,5.73
2023-04-28T00:22:31.320Z,5.40
2023-04-28T00:24:59.748Z,6.63
2023-04-28T00:27:28.222Z,4.97
2023-04-28T00:29:56.659Z,6.27
2023-04-28T00:32:25.207Z,5.07
2023-04-28T00:34:53.613Z,6.03
2023-04-28T00:37:22.188Z,4.70
2023-04-28T00:39:56.292Z,6.27
2023-04-28T00:42:24.766Z,5.10
2023-04-28T00:44:53.153Z,6.20
2023-04-28T00:47:21.798Z,3.47
2023-04-28T00:49:50.624Z,4.97
2023-04-28T00:52:18.992Z,4.60
2023-04-28T00:54:48.674Z,6.93
2023-04-28T00:57:18.608Z,6.17
2023-04-28T00:59:46.951Z,4.93
2023-04-28T01:02:17.695Z,5.00
2023-04-28T01:04:47.118Z,6.17
2023-04-28T01:07:15.521Z,5.40
2023-04-28T01:09:44.099Z,5.90
2023-04-28T01:12:12.573Z,5.97
2023-04-28T01:14:42.431Z,4.73
2023-04-28T01:17:10.907Z,5.70
2023-04-28T01:19:39.289Z,5.93
2023-04-28T01:22:07.693Z,4.57
2023-04-28T01:24:37.434Z,5.00
2023-04-28T01:27:06.125Z,3.47
2023-04-28T01:29:34.524Z,4.27
2023-04-28T01:32:03.104Z,6.23
2023-04-28T01:34:31.491Z,6.43
2023-04-28T01:36:59.911Z,5.90
2023-04-28T01:39:28.321Z,4.70
2023-04-28T01:41:58.065Z,3.57
2023-04-28T01:44:26.654Z,4.00
2023-04-28T01:46:54.978Z,5.70
2023-04-28T01:49:24.075Z,2.63
2023-04-28T01:51:52.438Z,5.07
2023-04-28T01:54:20.843Z,4.30
2023-04-28T01:56:49.214Z,4.97
2023-04-28T01:59:20.022Z,6.10
2023-04-28T02:01:48.438Z,4.67
2023-04-28T02:04:17.543Z,3.90
2023-04-28T02:06:46.319Z,3.07
2023-04-28T02:09:14.708Z,6.17
2023-04-28T02:11:43.061Z,5.07
2023-04-28T02:14:11.472Z,4.07
2023-04-28T02:16:41.564Z,4.27
2023-04-28T02:19:09.951Z,6.77
2023-04-28T02:21:38.327Z,5.50
2023-04-28T02:24:07.749Z,3.90
2023-04-28T02:26:36.396Z,3.73
2023-04-28T02:29:05.635Z,5.53
2023-04-28T02:31:34.139Z,7.00
2023-04-28T02:34:04.019Z,4.90
2023-04-28T02:36:32.504Z,3.20
2023-04-28T02:39:01.379Z,5.33
2023-04-28T02:41:31.107Z,5.33
2023-04-28T02:43:59.520Z,5.47
2023-04-28T02:46:27.985Z,5.73
2023-04-28T02:48:56.453Z,5.13
2023-04-28T02:51:26.794Z,5.00
2023-04-28T02:53:55.217Z,5.63
2023-04-28T02:56:23.644Z,7.20
2023-04-28T02:58:52.035Z,8.23
2023-04-28T03:01:20.563Z,4.03
2023-04-28T03:03:49.231Z,4.13
2023-04-28T03:06:17.791Z,4.10
2023-04-28T03:08:47.610Z,5.77
2023-04-28T03:11:16.426Z,7.40
2023-04-28T03:13:44.883Z,6.67
2023-04-28T03:16:13.221Z,5.93
2023-04-28T03:18:41.640Z,6.93
2023-04-28T03:21:10.020Z,4.53
2023-04-28T03:23:38.413Z,5.97
2023-04-28T03:26:08.210Z,6.07
2023-04-28T03:28:36.582Z,2.60
2023-04-28T03:31:05.020Z,4.77
2023-04-28T03:33:33.436Z,6.40
2023-04-28T03:36:01.785Z,5.40
2023-04-28T03:38:30.157Z,5.70
2023-04-28T03:40:58.530Z,7.00
2023-04-28T03:43:28.347Z,4.83
2023-04-28T03:45:56.746Z,1.87
2023-04-28T03:48:25.249Z,3.43
2023-04-28T03:50:53.699Z,3.20
2023-04-28T03:53:22.042Z,3.60
2023-04-28T03:55:51.018Z,4.20
2023-04-28T03:58:19.364Z,2.63
2023-04-28T04:00:50.670Z,3.93
2023-04-28T04:03:21.824Z,1.13
2023-04-28T04:05:50.393Z,5.70
2023-04-28T04:08:18.839Z,4.77
2023-04-28T04:10:47.222Z,6.40
2023-04-28T04:13:15.604Z,4.70
2023-04-28T04:15:44.053Z,7.80
2023-04-28T04:18:14.832Z,5.70
2023-04-28T04:20:43.250Z,6.20
2023-04-28T04:23:11.660Z,7.03
2023-04-28T04:25:40.054Z,2.77
2023-04-28T04:28:08.410Z,3.47
2023-04-28T04:30:36.841Z,3.27
2023-04-28T04:33:05.589Z,4.87
2023-04-28T04:35:35.654Z,5.37
2023-04-28T04:38:04.799Z,4.07
2023-04-28T04:40:33.276Z,3.33
2023-04-28T04:43:01.703Z,4.73
2023-04-28T04:45:30.205Z,7.07
2023-04-28T04:48:01.014Z,6.77
2023-04-28T04:50:29.429Z,4.63
2023-04-28T04:52:59.305Z,3.80
2023-04-28T04:55:27.653Z,4.57
2023-04-28T04:57:56.027Z,5.73
2023-04-28T05:00:24.522Z,5.67
2023-04-28T05:02:53.075Z,5.80
2023-04-28T05:05:22.851Z,6.13
2023-04-28T05:07:51.868Z,4.30
2023-04-28T05:10:21.765Z,2.97
2023-04-28T05:12:50.111Z,4.27
2023-04-28T05:15:18.643Z,4.57
2023-04-28T05:17:47.219Z,7.67
2023-04-28T05:20:16.034Z,4.40
2023-04-28T05:22:44.354Z,4.07
2023-04-28T05:25:12.819Z,1.83
2023-04-28T05:27:42.527Z,2.20
2023-04-28T05:30:11.704Z,1.47
2023-04-28T05:32:40.192Z,2.63
2023-04-28T05:35:08.993Z,2.00
2023-04-28T05:37:38.277Z,3.20
2023-04-28T05:40:07.952Z,1.40
2023-04-28T05:42:36.466Z,1.23
2023-04-28T05:45:06.943Z,1.07
2023-04-28T05:47:35.420Z,2.00
2023-04-28T05:50:03.995Z,4.80
2023-04-28T05:52:32.346Z,2.10
2023-04-28T05:55:00.658Z,2.50
2023-04-28T05:57:30.530Z,3.83
2023-04-28T06:00:02.221Z,1.80
2023-04-28T06:02:32.139Z,3.23
2023-04-28T06:05:00.943Z,3.40
2023-04-28T06:07:29.930Z,4.23
2023-04-28T06:10:00.804Z,4.90
2023-04-28T06:12:29.185Z,3.67
2023-04-28T06:14:58.071Z,2.07
2023-04-28T06:17:26.507Z,2.40
2023-04-28T06:19:56.993Z,2.47
2023-04-28T06:22:25.584Z,4.77
2023-04-28T06:24:54.007Z,3.13
2023-04-28T06:27:22.496Z,3.63
2023-04-28T06:29:51.397Z,4.80
2023-04-28T06:32:19.843Z,5.80
2023-04-28T06:34:48.431Z,3.30
2023-04-28T06:37:18.958Z,3.73
2023-04-28T06:39:47.811Z,3.03
2023-04-28T06:42:18.445Z,6.00
2023-04-28T06:44:46.867Z,7.33
2023-04-28T06:47:15.460Z,6.10
2023-04-28T06:49:45.589Z,6.10
2023-04-28T06:52:14.833Z,5.67
2023-04-28T06:54:44.707Z,6.00
2023-04-28T06:57:13.432Z,7.10
2023-04-28T06:59:43.977Z,5.73
2023-04-28T07:02:12.489Z,2.10
2023-04-28T07:04:41.042Z,4.33
2023-04-28T07:07:10.046Z,4.00
2023-04-28T07:09:38.656Z,5.83
2023-04-28T07:12:09.011Z,4.97
2023-04-28T07:14:37.421Z,5.60
2023-04-28T07:17:05.887Z,5.03
2023-04-28T07:19:34.394Z,5.67
2023-04-28T07:22:02.816Z,5.67
2023-04-28T07:24:31.324Z,5.70
2023-04-28T07:26:59.886Z,7.03
2023-04-28T07:29:35.268Z,6.27
2023-04-28T07:32:06.822Z,6.70
2023-04-28T07:34:36.984Z,5.10
2023-04-28T07:37:06.009Z,5.67
2023-04-28T07:39:35.324Z,4.90
2023-04-28T07:42:04.153Z,3.40
2023-04-28T07:44:34.022Z,5.30
2023-04-28T07:47:02.862Z,6.00
2023-04-28T07:49:34.240Z,4.00
2023-04-28T07:52:02.762Z,4.43
2023-04-28T07:54:31.178Z,6.30
2023-04-28T07:56:59.648Z,6.97
2023-04-28T07:59:28.142Z,4.50
2023-04-28T08:01:58.669Z,5.53
2023-04-28T08:04:27.621Z,6.57
2023-04-28T08:06:56.497Z,5.40
2023-04-28T08:09:24.941Z,7.23
2023-04-28T08:11:53.323Z,5.17
2023-04-28T08:14:22.708Z,7.10
2023-04-28T08:16:51.155Z,7.97
2023-04-28T08:19:21.650Z,8.73
2023-04-28T08:21:50.025Z,7.00
2023-04-28T08:24:18.708Z,8.10
2023-04-28T08:26:47.260Z,6.97
2023-04-28T08:29:15.659Z,9.37
2023-04-28T08:31:44.274Z,9.23
2023-04-28T08:34:14.552Z,5.47
2023-04-28T08:36:45.656Z,8.07
2023-04-28T08:39:14.157Z,9.87
2023-04-28T08:41:42.889Z,6.63
2023-04-28T08:44:11.796Z,9.17
2023-04-28T08:46:42.256Z,10.83
2023-04-28T08:49:14.488Z,8.37
2023-04-28T08:51:47.734Z,9.53
2023-04-28T08:54:26.214Z,9.80
2023-04-28T08:56:55.284Z,7.57
2023-04-28T08:59:23.647Z,8.73
2023-04-28T09:01:52.427Z,9.87
2023-04-28T09:04:22.551Z,10.87
2023-04-28T09:06:52.599Z,5.07
2023-04-28T09:09:25.288Z,4.43
2023-04-28T09:11:55.497Z,8.73
2023-04-28T09:14:24.615Z,10.27
2023-04-28T09:16:53.574Z,10.27
2023-04-28T09:19:22.455Z,9.07
2023-04-28T09:21:54.013Z,6.43
2023-04-28T09:24:29.101Z,2.47
2023-04-28T09:26:57.532Z,5.53
2023-04-28T09:29:26.206Z,10.73
2023-04-28T09:31:54.824Z,8.83
2023-04-28T09:34:23.418Z,5.67
2023-04-28T09:36:53.410Z,10.53
2023-04-28T09:39:30.543Z,2.90
2023-04-28T09:42:03.425Z,4.80
2023-04-28T09:44:31.989Z,3.43
2023-04-28T09:47:01.230Z,18.10
2023-04-28T09:49:29.680Z,15.70
2023-04-28T09:52:13.689Z,20.87
2023-04-28T09:54:42.075Z,18.63
2023-04-28T09:57:11.200Z,19.83
2023-04-28T09:59:39.725Z,9.70
2023-04-28T10:02:22.469Z,5.90
2023-04-28T10:04:57.270Z,2.47
2023-04-28T10:07:28.513Z,2.93
2023-04-28T10:09:57.230Z,5.90
2023-04-28T10:12:26.870Z,16.17
2023-04-28T10:14:55.438Z,4.87
2023-04-28T10:17:25.580Z,3.57
2023-04-28T10:19:55.565Z,23.17
2023-04-28T10:22:37.074Z,24.27
2023-04-28T10:25:14.392Z,13.73
2023-04-28T10:27:44.605Z,25.20
2023-04-28T10:30:26.323Z,17.07
2023-04-28T10:33:15.045Z,10.77
2023-04-28T10:35:44.627Z,23.47
2023-04-28T10:38:15.182Z,22.40
2023-04-28T10:40:44.549Z,20.03
2023-04-28T10:43:13.437Z,14.40
2023-04-28T10:46:03.973Z,26.43
2023-04-28T10:48:51.014Z,26.60
2023-04-28T10:51:34.291Z,26.20
2023-04-28T10:54:22.448Z,31.33
2023-04-28T10:57:11.489Z,29.97
2023-04-28T10:59:39.879Z,25.73
2023-04-28T11:02:32.371Z,26.57
2023-04-28T11:05:13.912Z,24.93
2023-04-28T11:07:42.483Z,17.40
2023-04-28T11:10:12.462Z,10.13
2023-04-28T11:13:07.722Z,22.97
2023-04-28T11:15:37.693Z,28.53
2023-04-28T11:18:06.254Z,26.27
2023-04-28T11:20:35.665Z,30.27
2023-04-28T11:23:06.658Z,27.87
2023-04-28T11:25:49.860Z,25.67
2023-04-28T11:28:20.072Z,13.43
2023-04-28T11:30:48.734Z,13.67
2023-04-28T11:33:17.522Z,16.90
2023-04-28T11:35:47.932Z,6.40
2023-04-28T11:38:16.309Z,9.93
2023-04-28T11:40:58.104Z,2.47
2023-04-28T11:43:46.096Z,6.17
2023-04-28T11:46:18.920Z,7.40
2023-04-28T11:48:47.492Z,5.43
2023-04-28T11:51:35.721Z,2.67
2023-04-28T11:54:04.734Z,4.47
2023-04-28T11:56:34.971Z,2.80
2023-04-28T11:59:08.935Z,2.23
2023-04-28T12:01:38.596Z,3.17
2023-04-28T12:04:07.184Z,2.47
2023-04-28T12:06:35.726Z,2.33
2023-04-28T12:09:16.561Z,4.10
2023-04-28T12:11:54.838Z,3.03
2023-04-28T12:14:24.894Z,2.97
2023-04-28T12:16:53.751Z,1.30
2023-04-28T12:19:22.353Z,6.70
2023-04-28T12:22:11.428Z,4.27
2023-04-28T12:24:41.063Z,3.07
2023-04-28T12:27:15.915Z,4.53
2023-04-28T12:29:46.853Z,1.83
2023-04-28T12:32:16.007Z,2.83
2023-04-28T12:34:46.151Z,3.13
2023-04-28T12:37:15.427Z,4.77
2023-04-28T12:39:44.367Z,4.40
2023-04-28T12:42:13.149Z,7.17
2023-04-28T12:44:41.633Z,4.47
2023-04-28T12:47:12.095Z,8.83
2023-04-28T12:49:41.521Z,4.53
2023-04-28T12:52:10.107Z,6.63
2023-04-28T12:54:38.638Z,4.97
2023-04-28T12:57:07.234Z,6.43
2023-04-28T12:59:35.721Z,8.80
2023-04-28T13:02:04.303Z,7.37
2023-04-28T13:04:34.336Z,6.20
2023-04-28T13:07:02.955Z,4.43
2023-04-28T13:09:31.372Z,6.00
2023-04-28T13:11:59.705Z,7.23
2023-04-28T13:14:29.181Z,6.63
2023-04-28T13:16:57.735Z,6.60
2023-04-28T13:19:27.786Z,8.03
2023-04-28T13:21:57.734Z,5.60
2023-04-28T13:24:26.437Z,8.80
2023-04-28T13:26:54.899Z,11.33
2023-04-28T13:29:23.385Z,6.97
2023-04-28T13:31:51.805Z,11.90
2023-04-28T13:34:20.186Z,10.20
2023-04-28T13:36:51.019Z,5.90
2023-04-28T13:39:22.114Z,9.17
2023-04-28T13:41:50.669Z,16.00
2023-04-28T13:44:19.437Z,14.20
2023-04-28T13:46:48.302Z,7.53
2023-04-28T13:49:17.186Z,4.87
2023-04-28T13:51:46.526Z,9.57
2023-04-28T13:54:14.950Z,8.47
2023-04-28T13:56:45.143Z,12.63
2023-04-28T13:59:13.589Z,9.63
2023-04-28T14:01:42.248Z,11.67
2023-04-28T14:04:10.835Z,7.00
2023-04-28T14:06:39.615Z,4.50
2023-04-28T14:09:09.515Z,7.80
2023-04-28T14:11:37.940Z,8.60
2023-04-28T14:14:07.754Z,10.30
2023-04-28T14:16:36.379Z,5.53
2023-04-28T14:19:04.739Z,6.53
2023-04-28T14:21:33.144Z,8.70
2023-04-28T14:24:01.551Z,8.93
2023-04-28T14:26:30.080Z,12.83
2023-04-28T14:29:00.177Z,8.90
2023-04-28T14:31:30.046Z,6.17
2023-04-28T14:33:58.497Z,12.50
2023-04-28T14:36:27.496Z,10.37
2023-04-28T14:38:55.909Z,6.93
2023-04-28T14:41:24.419Z,5.80
2023-04-28T14:43:52.868Z,10.80
2023-04-28T14:46:23.247Z,9.80
2023-04-28T14:48:53.874Z,3.63
2023-04-28T14:51:22.894Z,8.17
2023-04-28T14:53:51.355Z,8.23
2023-04-28T14:56:20.530Z,12.23
2023-04-28T14:58:49.024Z,9.27
2023-04-28T15:01:17.564Z,6.70
2023-04-28T15:03:46.419Z,4.40
2023-04-28T15:06:16.453Z,11.50
2023-04-28T15:08:44.882Z,9.73
2023-04-28T15:11:13.439Z,5.77
2023-04-28T15:13:43.126Z,5.50
2023-04-28T15:16:12.166Z,11.80
2023-04-28T15:18:41.259Z,8.90
2023-04-28T15:21:09.900Z,6.70
2023-04-28T15:23:40.619Z,9.27
2023-04-28T15:26:10.935Z,7.87
2023-04-28T15:28:39.567Z,6.40
2023-04-28T15:31:08.098Z,7.13
2023-04-28T15:33:36.570Z,5.97
2023-04-28T15:36:05.175Z,10.70
2023-04-28T15:38:34.196Z,7.80
2023-04-28T15:41:04.064Z,15.10
2023-04-28T15:43:32.489Z,7.90
2023-04-28T15:46:01.267Z,4.17
2023-04-28T15:48:29.694Z,10.40
2023-04-28T15:50:58.619Z,8.47
2023-04-28T15:53:27.034Z,13.00
2023-04-28T15:55:55.503Z,7.87
2023-04-28T15:58:25.299Z,10.73
2023-04-28T16:00:53.740Z,12.80
2023-04-28T16:03:22.491Z,7.73
2023-04-28T16:05:51.127Z,12.20
2023-04-28T16:08:20.663Z,10.40
2023-04-28T16:10:49.259Z,9.47
2023-04-28T16:13:17.857Z,15.83
2023-04-28T16:15:49.450Z,9.30
2023-04-28T16:18:17.945Z,11.23
2023-04-28T16:20:46.705Z,10.60
2023-04-28T16:23:15.082Z,17.73
2023-04-28T16:25:43.718Z,5.73
2023-04-28T16:28:12.109Z,19.83
2023-04-28T16:30:41.040Z,12.97
2023-04-28T16:33:10.830Z,8.43
2023-04-28T16:35:39.284Z,10.07
2023-04-28T16:38:08.819Z,13.43
2023-04-28T16:40:37.192Z,9.03
2023-04-28T16:43:05.527Z,6.57
2023-04-28T16:45:34.053Z,8.63
2023-04-28T16:48:02.520Z,4.60
2023-04-28T16:50:34.350Z,9.30
2023-04-28T16:53:02.737Z,4.97
2023-04-28T16:55:31.581Z,9.40
2023-04-28T16:57:59.916Z,7.90
2023-04-28T17:00:28.356Z,14.70
2023-04-28T17:02:56.970Z,8.17
2023-04-28T17:05:25.541Z,10.40
2023-04-28T17:07:56.964Z,7.17
2023-04-28T17:10:25.495Z,6.47
2023-04-28T17:12:53.894Z,9.43
2023-04-28T17:15:22.287Z,16.67
2023-04-28T17:17:52.055Z,13.17
2023-04-28T17:20:21.589Z,13.53
2023-04-28T17:22:50.468Z,9.53
2023-04-28T17:25:20.991Z,10.87
2023-04-28T17:27:49.376Z,16.80
2023-04-28T17:30:17.826Z,16.03
2023-04-28T17:32:46.576Z,20.87
2023-04-28T17:35:14.942Z,10.90
2023-04-28T17:37:46.195Z,3.07
2023-04-28T17:40:15.052Z,6.60
2023-04-28T17:42:44.875Z,9.50
2023-04-28T17:45:13.619Z,13.03
2023-04-28T17:47:42.062Z,10.23
2023-04-28T17:50:11.095Z,2.97
2023-04-28T17:52:41.037Z,11.03
2023-04-28T17:55:11.286Z,11.70
2023-04-28T17:57:39.928Z,1.43
2023-04-28T18:00:12.129Z,12.97
2023-04-28T18:02:40.873Z,17.67
2023-04-28T18:05:09.493Z,9.73
2023-04-28T18:07:37.989Z,13.40
2023-04-28T18:10:06.785Z,9.63
2023-04-28T18:12:35.171Z,7.17
2023-04-28T18:15:03.532Z,8.07
2023-04-28T18:17:33.441Z,13.40
2023-04-28T18:20:01.991Z,8.90
2023-04-28T18:22:30.721Z,8.00
2023-04-28T18:24:59.790Z,7.50
2023-04-28T18:27:28.332Z,10.03
2023-04-28T18:29:57.000Z,4.23
2023-04-28T18:32:25.492Z,15.67
2023-04-28T18:34:55.628Z,15.73
2023-04-28T18:37:24.049Z,7.70
2023-04-28T18:39:57.017Z,8.97
2023-04-28T18:42:27.319Z,9.47
2023-04-28T18:44:56.356Z,10.10
2023-04-28T18:47:25.547Z,10.70
2023-04-28T18:49:55.517Z,9.67
2023-04-28T18:52:23.976Z,11.33
2023-04-28T18:54:52.510Z,4.33
2023-04-28T18:57:20.884Z,7.23
2023-04-28T18:59:49.959Z,5.93
2023-04-28T19:02:19.175Z,9.50
2023-04-28T19:04:47.722Z,7.33
2023-04-28T19:07:17.564Z,3.70
2023-04-28T19:09:45.905Z,11.83
2023-04-28T19:12:14.265Z,9.53
2023-04-28T19:14:42.695Z,6.83
2023-04-28T19:17:11.404Z,11.17
2023-04-28T19:19:39.833Z,5.77
2023-04-28T19:22:08.267Z,6.53
2023-04-28T19:24:38.384Z,10.30
2023-04-28T19:27:06.743Z,7.73
2023-04-28T19:29:35.150Z,9.47
2023-04-28T19:32:03.566Z,11.07
2023-04-28T19:34:32.267Z,5.20
2023-04-28T19:37:00.723Z,4.87
2023-04-28T19:39:29.378Z,6.47
2023-04-28T19:41:59.191Z,5.37
2023-04-28T19:44:27.868Z,6.80
2023-04-28T19:46:56.311Z,4.40
2023-04-28T19:49:24.674Z,7.20
2023-04-28T19:51:53.105Z,7.00
2023-04-28T19:54:21.548Z,10.47
2023-04-28T19:56:49.902Z,8.20
2023-04-28T19:59:19.690Z,7.80
2023-04-28T20:01:48.105Z,8.30
2023-04-28T20:04:16.730Z,6.27
2023-04-28T20:06:45.219Z,3.97
2023-04-28T20:09:13.559Z,5.63
2023-04-28T20:11:42.196Z,4.10
2023-04-28T20:14:10.527Z,4.63
2023-04-28T20:16:40.267Z,3.90
2023-04-28T20:19:08.601Z,5.23
2023-04-28T20:21:37.385Z,5.87
2023-04-28T20:24:05.956Z,3.53
2023-04-28T20:26:34.532Z,4.67
2023-04-28T20:29:03.281Z,7.03
2023-04-28T20:31:31.752Z,5.50
2023-04-28T20:34:02.193Z,5.03
2023-04-28T20:36:30.566Z,6.03
2023-04-28T20:38:58.951Z,4.93
2023-04-28T20:41:27.320Z,5.60
2023-04-28T20:43:55.762Z,3.27
2023-04-28T20:46:24.361Z,3.33
2023-04-28T20:48:52.770Z,5.53
2023-04-28T20:51:22.546Z,4.43
2023-04-28T20:53:50.895Z,4.80
2023-04-28T20:56:19.323Z,3.97
2023-04-28T20:58:47.981Z,6.40
2023-04-28T21:01:17.545Z,6.07
2023-04-28T21:03:46.140Z,4.60
2023-04-28T21:06:14.593Z,5.07
2023-04-28T21:08:45.132Z,4.67
2023-04-28T21:11:14.035Z,4.73
2023-04-28T21:13:43.027Z,6.87
2023-04-28T21:16:17.628Z,6.17
2023-04-28T21:18:48.999Z,5.83
2023-04-28T21:21:18.301Z,7.93
2023-04-28T21:23:48.096Z,6.03
2023-04-28T21:26:16.471Z,3.80
2023-04-28T21:28:44.897Z,8.20
2023-04-28T21:31:13.583Z,8.57
2023-04-28T21:33:41.955Z,8.07
2023-04-28T21:36:10.478Z,10.40
2023-04-28T21:38:39.020Z,8.60
2023-04-28T21:41:08.811Z,6.70
2023-04-28T21:43:37.466Z,7.97
2023-04-28T21:46:05.873Z,8.77
2023-04-28T21:48:34.299Z,12.60
2023-04-28T21:51:02.672Z,13.03
2023-04-28T21:53:31.010Z,10.07
2023-04-28T21:55:59.409Z,11.93
2023-04-28T21:58:29.168Z,10.10
2023-04-28T22:00:57.713Z,9.07
2023-04-28T22:03:26.288Z,8.67
2023-04-28T22:05:54.795Z,7.73
2023-04-28T22:08:23.179Z,9.47
2023-04-28T22:10:51.533Z,6.63
2023-04-28T22:13:20.055Z,10.40
2023-04-28T22:15:49.831Z,8.83
2023-04-28T22:18:18.370Z,11.80
2023-04-28T22:20:46.893Z,6.67
2023-04-28T22:23:15.526Z,11.27
2023-04-28T22:25:45.043Z,9.33
2023-04-28T22:28:13.886Z,12.07
2023-04-28T22:30:42.301Z,8.80
2023-04-28T22:33:12.262Z,9.77
2023-04-28T22:35:40.977Z,10.47
2023-04-28T22:38:09.314Z,8.43
2023-04-28T22:40:37.676Z,9.70
2023-04-28T22:43:06.104Z,10.73
2023-04-28T22:45:34.491Z,8.27
2023-04-28T22:48:03.003Z,7.37
2023-04-28T22:50:32.771Z,5.57
2023-04-28T22:53:01.246Z,6.97
2023-04-28T22:55:29.805Z,10.27
2023-04-28T22:57:58.202Z,9.03
2023-04-28T23:00:26.803Z,8.47
2023-04-28T23:02:55.361Z,9.10
2023-04-28T23:05:23.819Z,9.60
2023-04-28T23:07:53.599Z,10.80
2023-04-28T23:10:21.985Z,12.03
2023-04-28T23:12:50.433Z,8.50
2023-04-28T23:15:18.813Z,8.23
2023-04-28T23:17:47.356Z,10.03
2023-04-28T23:20:16.108Z,10.03
2023-04-28T23:22:44.440Z,8.37
2023-04-28T23:25:14.393Z,8.73
2023-04-28T23:27:43.195Z,7.53
2023-04-28T23:30:12.032Z,9.80
2023-04-28T23:32:40.673Z,9.57
2023-04-28T23:35:09.725Z,4.97
2023-04-28T23:37:38.141Z,8.80
2023-04-28T23:40:07.284Z,9.50
2023-04-28T23:42:37.265Z,7.13
2023-04-28T23:47:35.381Z,8.43
2023-04-28T23:50:04.582Z,10.27
2023-04-28T23:52:33.049Z,8.57
2023-04-28T23:55:01.516Z,9.13
2023-04-28T23:57:29.885Z,5.93
2023-04-28T23:59:59.638Z,6.13
